Overview Statistics Trail Chart Weather Telemetry Raw packets
 

This is the latest recevied weather packets stored in our database for station/object EA5JMY-10. If no packets are shown the sender has not sent any weather packets the latest 10 day(s).

<< 26 27 28 29 30 31 32 >>
Time Temp. Humidity Pressure Rain* Wind** Luminosity Snow
1788006263 31.67° C 29% 1020.4 hPa - - - -
1788005363 31.67° C 27% 1020.5 hPa - - - -
1788004463 32.22° C 25% 1020.6 hPa - - - -
1788003563 36.11° C 21% 1020.6 hPa - - - -
1788002664 32.78° C 27% 1020.7 hPa - - - -
1788001762 33.33° C 23% 1020.8 hPa - - - -
1788000862 33.33° C 27% 1020.7 hPa - - - -
1787999962 32.22° C 27% 1020.9 hPa - - - -
1787999062 32.22° C 27% 1021.1 hPa - - - -
1787998162 33.89° C 23% 1021.1 hPa - - - -
1787997262 32.22° C 25% 1021.1 hPa - - - -
1787996363 33.89° C 25% 1021.2 hPa - - - -
1787995462 32.78° C 26% 1021.1 hPa - - - -
1787994562 35° C 23% 1021.2 hPa - - - -
1787993661 37.22° C 18% 1020.9 hPa - - - -
1787992762 33.89° C 23% 1020.8 hPa - - - -
1787991861 38.33° C 19% 1020.8 hPa - - - -
1787990972 37.22° C 20% 1020.8 hPa - - - -
1787990061 38.33° C 19% 1020.8 hPa - - - -
1787989161 37.78° C 21% 1020.7 hPa - - - -
1787988261 36.67° C 23% 1020.4 hPa - - - -
1787987361 35° C 25% 1020.4 hPa - - - -
1787986460 30.56° C 30% 1020.3 hPa - - - -
1787985560 33.89° C 25% 1020.2 hPa - - - -
1787984660 31.67° C 28% 1020.2 hPa - - - -

* Rain since midnight (hover to see other rain measurements)
** Current wind speed in m/s (hover to see current wind gust speed)